createdAt,value
2017-12-14T00:00:08.656Z,99.20
2017-12-14T00:01:08.629Z,98.63
2017-12-14T00:02:08.612Z,98.44
2017-12-14T00:03:08.588Z,99.11
2017-12-14T00:04:08.576Z,98.54
2017-12-14T00:05:08.594Z,97.97
2017-12-14T00:06:08.539Z,97.69
2017-12-14T00:07:08.582Z,98.35
2017-12-14T00:08:08.520Z,98.25
2017-12-14T00:09:08.493Z,98.25
2017-12-14T00:10:08.485Z,98.25
2017-12-14T00:11:08.462Z,98.16
2017-12-14T00:12:08.442Z,97.40
2017-12-14T00:13:08.500Z,96.92
2017-12-14T00:14:08.409Z,96.83
2017-12-14T00:15:08.390Z,97.50
2017-12-14T00:16:08.378Z,97.78
2017-12-14T00:17:08.364Z,97.59
2017-12-14T00:18:08.349Z,96.92
2017-12-14T00:19:08.374Z,96.55
2017-12-14T00:20:08.307Z,96.55
2017-12-14T00:21:08.299Z,96.55
2017-12-14T00:22:08.287Z,97.12
2017-12-14T00:23:08.258Z,96.83
2017-12-14T00:24:08.251Z,96.64
2017-12-14T00:25:08.298Z,96.83
2017-12-14T00:26:08.210Z,96.64
2017-12-14T00:27:08.185Z,97.59
2017-12-14T00:28:08.176Z,96.73
2017-12-14T00:29:08.156Z,97.12
2017-12-14T00:30:08.140Z,97.12
2017-12-14T00:31:08.176Z,96.45
2017-12-14T00:32:08.114Z,97.02
2017-12-14T00:33:08.094Z,96.83
2017-12-14T00:34:08.071Z,96.73
2017-12-14T00:35:08.059Z,96.45
2017-12-14T00:36:08.034Z,95.98
2017-12-14T00:37:08.098Z,96.83
2017-12-14T00:38:08.013Z,96.45
2017-12-14T00:39:07.988Z,96.36
2017-12-14T00:40:07.976Z,96.36
2017-12-14T00:41:07.965Z,95.12
2017-12-14T00:42:07.941Z,94.84
2017-12-14T00:43:07.959Z,95.03
2017-12-14T00:44:07.908Z,95.31
2017-12-14T00:45:07.893Z,95.79
2017-12-14T00:46:07.879Z,96.17
2017-12-14T00:47:07.909Z,95.88
2017-12-14T00:48:07.839Z,95.69
2017-12-14T00:49:07.822Z,96.08
2017-12-14T00:50:07.819Z,95.98
2017-12-14T00:51:07.788Z,95.69
2017-12-14T00:52:07.778Z,95.22
2017-12-14T00:53:07.826Z,95.69
2017-12-14T00:54:07.738Z,94.93
2017-12-14T00:55:07.723Z,94.93
2017-12-14T00:56:07.703Z,94.37
2017-12-14T00:57:07.693Z,94.65
2017-12-14T00:58:07.678Z,94.93
2017-12-14T00:59:07.718Z,94.74
2017-12-14T01:00:07.642Z,93.61
2017-12-14T01:01:07.623Z,93.80
2017-12-14T01:02:07.610Z,94.65
2017-12-14T01:03:07.593Z,94.18
2017-12-14T01:04:07.573Z,94.37
2017-12-14T01:05:07.616Z,94.18
2017-12-14T01:06:07.546Z,94.65
2017-12-14T01:07:07.525Z,94.56
2017-12-14T01:08:07.520Z,95.12
2017-12-14T01:09:07.496Z,94.84
2017-12-14T01:10:07.472Z,94.93
2017-12-14T01:11:07.487Z,94.65
2017-12-14T01:12:07.455Z,93.80
2017-12-14T01:13:07.433Z,93.61
2017-12-14T01:14:07.412Z,93.51
2017-12-14T01:15:07.398Z,93.32
2017-12-14T01:16:07.448Z,93.99
2017-12-14T01:17:07.364Z,93.99
2017-12-14T01:18:07.346Z,93.51
2017-12-14T01:19:07.327Z,93.41
2017-12-14T01:20:07.310Z,93.23
2017-12-14T01:21:07.292Z,93.04
2017-12-14T01:22:07.354Z,93.80
2017-12-14T01:23:07.260Z,93.89
2017-12-14T01:24:07.244Z,93.32
2017-12-14T01:25:07.239Z,93.41
2017-12-14T01:26:07.220Z,93.41
2017-12-14T01:27:07.202Z,93.51
2017-12-14T01:28:07.253Z,93.04
2017-12-14T01:29:07.176Z,93.13
2017-12-14T01:30:07.157Z,93.23
2017-12-14T01:31:07.127Z,92.66
2017-12-14T01:32:07.112Z,93.70
2017-12-14T01:33:07.098Z,93.89
2017-12-14T01:34:07.132Z,93.80
2017-12-14T01:35:07.071Z,93.41
2017-12-14T01:36:07.051Z,92.47
2017-12-14T01:37:07.042Z,93.13
2017-12-14T01:38:07.022Z,93.23
2017-12-14T01:39:07.002Z,93.23
2017-12-14T01:40:07.053Z,93.32
2017-12-14T01:41:06.972Z,93.32
2017-12-14T01:42:06.959Z,93.13
2017-12-14T01:43:06.925Z,93.32
2017-12-14T01:44:06.911Z,93.99
2017-12-14T01:45:06.904Z,93.04
2017-12-14T01:46:06.935Z,93.23
2017-12-14T01:47:06.875Z,93.70
2017-12-14T01:48:06.860Z,93.89
2017-12-14T01:49:06.836Z,93.32
2017-12-14T01:50:06.822Z,94.18
2017-12-14T01:51:06.801Z,91.99
2017-12-14T01:52:06.818Z,92.09
2017-12-14T01:53:06.802Z,92.18
2017-12-14T01:54:06.762Z,93.13
2017-12-14T01:55:06.750Z,92.38
2017-12-14T01:56:06.730Z,92.66
2017-12-14T01:57:06.697Z,92.47
2017-12-14T01:58:06.732Z,92.76
2017-12-14T01:59:06.679Z,92.38
2017-12-14T02:00:06.661Z,92.94
2017-12-14T02:01:06.637Z,93.32
2017-12-14T02:02:06.614Z,93.41
2017-12-14T02:03:06.647Z,93.23
2017-12-14T02:04:06.595Z,92.85
2017-12-14T02:05:06.569Z,92.66
2017-12-14T02:06:06.564Z,92.18
2017-12-14T02:07:06.532Z,93.13
2017-12-14T02:08:06.580Z,92.94
2017-12-14T02:09:06.499Z,92.85
2017-12-14T02:10:06.490Z,93.23
2017-12-14T02:11:06.477Z,93.70
2017-12-14T02:12:06.450Z,92.85
2017-12-14T02:13:06.431Z,92.47
2017-12-14T02:14:06.452Z,92.76
2017-12-14T02:15:06.469Z,93.04
2017-12-14T02:16:06.383Z,93.04
2017-12-14T02:17:06.380Z,92.94
2017-12-14T02:18:06.360Z,93.23
2017-12-14T02:19:06.353Z,92.28
2017-12-14T02:20:06.320Z,91.71
2017-12-14T02:21:06.381Z,91.90
2017-12-14T02:22:06.319Z,92.09
2017-12-14T02:23:06.270Z,92.94
2017-12-14T02:24:06.272Z,93.04
2017-12-14T02:25:06.252Z,93.04
2017-12-14T02:26:06.232Z,92.66
2017-12-14T02:27:06.287Z,91.33
2017-12-14T02:28:06.208Z,92.76
2017-12-14T02:29:06.183Z,93.04
2017-12-14T02:30:06.158Z,92.85
2017-12-14T02:31:06.140Z,92.09
2017-12-14T02:32:06.139Z,92.57
2017-12-14T02:33:06.176Z,92.76
2017-12-14T02:34:06.098Z,93.32
2017-12-14T02:35:06.086Z,92.66
2017-12-14T02:36:06.061Z,92.85
2017-12-14T02:37:06.061Z,93.04
2017-12-14T02:38:06.038Z,92.85
2017-12-14T02:39:06.058Z,92.85
2017-12-14T02:40:06.072Z,93.61
2017-12-14T02:41:05.997Z,93.32
2017-12-14T02:42:05.978Z,92.94
2017-12-14T02:43:05.963Z,92.38
2017-12-14T02:44:05.931Z,92.38
2017-12-14T02:45:05.923Z,93.89
2017-12-14T02:46:05.932Z,92.94
2017-12-14T02:47:05.926Z,93.32
2017-12-14T02:48:05.874Z,92.28
2017-12-14T02:49:05.867Z,93.32
2017-12-14T02:50:05.831Z,93.51
2017-12-14T02:51:05.836Z,94.56
2017-12-14T02:52:05.842Z,93.13
2017-12-14T02:53:05.806Z,92.57
2017-12-14T02:54:05.787Z,93.61
2017-12-14T02:55:05.769Z,93.61
2017-12-14T02:56:05.746Z,94.46
2017-12-14T02:57:05.768Z,93.99
2017-12-14T02:58:05.731Z,92.76
2017-12-14T02:59:05.702Z,93.13
2017-12-14T03:00:05.670Z,93.41
2017-12-14T03:01:05.655Z,93.32
2017-12-14T03:02:05.724Z,93.32
2017-12-14T03:03:05.625Z,92.85
2017-12-14T03:04:05.624Z,93.32
2017-12-14T03:05:05.604Z,93.23
2017-12-14T03:06:05.586Z,93.23
2017-12-14T03:07:05.576Z,92.66
2017-12-14T03:08:05.572Z,92.66
2017-12-14T03:09:05.564Z,92.76
2017-12-14T03:10:05.539Z,93.13
2017-12-14T03:11:05.518Z,93.61
2017-12-14T03:12:05.488Z,93.51
2017-12-14T03:13:05.609Z,93.04
2017-12-14T03:14:05.463Z,93.61
2017-12-14T03:15:05.440Z,94.18
2017-12-14T03:16:05.432Z,92.38
2017-12-14T03:17:05.436Z,94.18
2017-12-14T03:18:05.401Z,93.04
2017-12-14T03:19:05.416Z,92.85
2017-12-14T03:20:05.358Z,92.76
2017-12-14T03:21:05.353Z,93.89
2017-12-14T03:22:05.346Z,94.37
2017-12-14T03:23:05.379Z,93.80
2017-12-14T03:24:05.304Z,93.99
2017-12-14T03:25:05.276Z,93.23
2017-12-14T03:26:05.270Z,93.41
2017-12-14T03:27:05.281Z,93.04
2017-12-14T03:28:05.244Z,93.23
2017-12-14T03:29:05.261Z,93.80
2017-12-14T03:30:05.205Z,95.22
2017-12-14T03:31:05.177Z,93.80
2017-12-14T03:32:05.190Z,93.23
2017-12-14T03:33:05.136Z,93.99
2017-12-14T03:34:05.203Z,93.99
2017-12-14T03:35:05.128Z,93.41
2017-12-14T03:36:05.114Z,94.18
2017-12-14T03:37:05.092Z,93.99
2017-12-14T03:38:05.061Z,94.37
2017-12-14T03:39:05.065Z,94.37
2017-12-14T03:40:05.090Z,93.70
2017-12-14T03:41:05.027Z,93.80
2017-12-14T03:42:05.014Z,94.18
2017-12-14T03:43:04.992Z,93.04
2017-12-14T03:44:04.966Z,93.99
2017-12-14T03:45:04.957Z,94.37
2017-12-14T03:46:04.967Z,93.61
2017-12-14T03:47:04.929Z,93.99
2017-12-14T03:48:04.910Z,93.80
2017-12-14T03:49:04.898Z,93.23
2017-12-14T03:50:04.889Z,93.32
2017-12-14T03:51:04.900Z,93.70
2017-12-14T03:52:04.856Z,94.37
2017-12-14T03:53:04.840Z,93.61
2017-12-14T03:54:04.806Z,94.27
2017-12-14T03:55:04.797Z,93.51
2017-12-14T03:56:04.795Z,93.99
2017-12-14T03:57:04.806Z,94.46
2017-12-14T03:58:04.733Z,93.70
2017-12-14T03:59:04.731Z,93.13
2017-12-14T04:00:04.720Z,94.08
2017-12-14T04:01:04.696Z,93.41
2017-12-14T04:02:04.751Z,92.76
2017-12-14T04:03:04.664Z,93.70
2017-12-14T04:04:04.641Z,93.41
2017-12-14T04:05:04.636Z,93.04
2017-12-14T04:06:04.622Z,94.08
2017-12-14T04:07:04.631Z,94.18
2017-12-14T04:08:04.619Z,93.13
2017-12-14T04:09:04.580Z,94.46
2017-12-14T04:10:04.553Z,94.65
2017-12-14T04:11:04.568Z,93.13
2017-12-14T04:12:04.584Z,93.23
2017-12-14T04:13:04.510Z,93.32
2017-12-14T04:14:04.504Z,93.32
2017-12-14T04:15:04.467Z,93.23
2017-12-14T04:16:04.458Z,93.70
2017-12-14T04:17:04.481Z,93.32
2017-12-14T04:18:04.459Z,93.41
2017-12-14T04:19:04.420Z,92.94
2017-12-14T04:20:04.436Z,92.94
2017-12-14T04:21:04.367Z,93.89
2017-12-14T04:22:04.360Z,95.12
2017-12-14T04:23:04.378Z,94.46
2017-12-14T04:24:04.327Z,93.99
2017-12-14T04:25:04.297Z,93.99
2017-12-14T04:26:04.290Z,93.80
2017-12-14T04:27:04.285Z,93.04
2017-12-14T04:28:04.307Z,93.32
2017-12-14T04:29:04.241Z,92.38
2017-12-14T04:30:04.265Z,92.47
2017-12-14T04:31:04.224Z,93.41
2017-12-14T04:32:04.227Z,93.41
2017-12-14T04:33:04.178Z,93.51
2017-12-14T04:34:04.201Z,94.56
2017-12-14T04:35:25.158Z,93.80
2017-12-14T04:36:04.145Z,93.61
2017-12-14T04:37:04.128Z,93.23
2017-12-14T04:38:04.186Z,92.76
2017-12-14T04:39:04.090Z,92.66
2017-12-14T04:40:04.138Z,94.65
2017-12-14T04:41:04.078Z,93.99
2017-12-14T04:42:04.044Z,94.84
2017-12-14T04:43:04.016Z,93.70
2017-12-14T04:44:04.063Z,93.51
2017-12-14T04:45:04.009Z,93.99
2017-12-14T04:46:03.995Z,94.93
2017-12-14T04:47:04.062Z,93.32
2017-12-14T04:48:03.932Z,93.04
2017-12-14T04:49:04.121Z,93.04
2017-12-14T04:50:03.966Z,92.94
2017-12-14T04:51:03.898Z,93.99
2017-12-14T04:52:03.873Z,93.70
2017-12-14T04:53:03.900Z,94.08
2017-12-14T04:54:04.425Z,93.51
2017-12-14T04:55:03.920Z,94.18
2017-12-14T04:56:03.921Z,93.23
2017-12-14T04:57:03.830Z,93.70
2017-12-14T04:58:03.770Z,93.70
2017-12-14T04:59:03.768Z,94.46
2017-12-14T05:00:03.820Z,93.32
2017-12-14T05:01:04.383Z,93.13
2017-12-14T05:02:04.374Z,93.23
2017-12-14T05:03:03.691Z,94.56
2017-12-14T05:04:03.911Z,93.89
2017-12-14T05:05:03.665Z,94.84
2017-12-14T05:06:03.677Z,94.93
2017-12-14T05:07:03.667Z,95.03
2017-12-14T05:08:03.648Z,96.17
2017-12-14T05:09:04.359Z,95.69
2017-12-14T05:10:03.589Z,95.88
2017-12-14T05:11:03.656Z,94.93
2017-12-14T05:12:03.532Z,94.74
2017-12-14T05:13:03.522Z,93.61
2017-12-14T05:14:03.508Z,93.99
2017-12-14T05:15:03.522Z,94.93
2017-12-14T05:16:03.492Z,94.56
2017-12-14T05:17:03.507Z,94.46
2017-12-14T05:18:03.461Z,93.99
2017-12-14T05:19:03.440Z,94.18
2017-12-14T05:20:03.418Z,93.99
2017-12-14T05:21:03.385Z,94.56
2017-12-14T05:22:03.446Z,94.56
2017-12-14T05:23:03.355Z,94.74
2017-12-14T05:24:03.355Z,96.17
2017-12-14T05:25:03.396Z,95.50
2017-12-14T05:26:03.350Z,95.12
2017-12-14T05:27:03.299Z,94.46
2017-12-14T05:28:04.373Z,94.56
2017-12-14T05:29:03.285Z,94.46
2017-12-14T05:30:03.250Z,94.18
2017-12-14T05:31:03.240Z,94.65
2017-12-14T05:32:03.244Z,95.22
2017-12-14T05:33:03.886Z,95.41
2017-12-14T05:34:03.432Z,95.22
2017-12-14T05:35:03.160Z,94.37
2017-12-14T05:36:03.167Z,94.93
2017-12-14T05:37:04.882Z,94.56
2017-12-14T05:38:03.132Z,95.12
2017-12-14T05:39:03.113Z,95.31
2017-12-14T05:40:03.184Z,95.31
2017-12-14T05:41:03.090Z,94.93
2017-12-14T05:42:03.078Z,94.46
2017-12-14T05:43:03.058Z,95.12
2017-12-14T05:44:03.039Z,94.79
2017-12-14T05:45:05.215Z,95.50
2017-12-14T05:46:03.421Z,95.41
2017-12-14T05:47:03.063Z,96.08
2017-12-14T05:48:02.958Z,94.89
2017-12-14T05:49:02.946Z,95.22
2017-12-14T05:50:02.997Z,94.70
2017-12-14T05:51:03.026Z,94.23
2017-12-14T05:52:02.897Z,95.84
2017-12-14T05:53:02.870Z,95.17
2017-12-14T05:54:02.879Z,94.42
2017-12-14T05:55:02.841Z,94.89
2017-12-14T05:56:02.899Z,93.94
2017-12-14T05:57:02.822Z,94.04
2017-12-14T05:58:02.807Z,93.94
2017-12-14T05:59:02.783Z,94.23
2017-12-14T06:00:02.790Z,94.32
2017-12-14T06:01:02.831Z,94.32
2017-12-14T06:02:02.742Z,95.22
2017-12-14T06:03:02.721Z,95.12
2017-12-14T06:04:02.733Z,94.93
2017-12-14T06:05:03.432Z,95.03
2017-12-14T06:06:02.857Z,95.03
2017-12-14T06:07:02.765Z,95.41
2017-12-14T06:08:02.705Z,96.26
2017-12-14T06:09:02.705Z,96.64
2017-12-14T06:10:02.586Z,95.88
2017-12-14T06:11:02.697Z,95.88
2017-12-14T06:12:02.629Z,95.41
2017-12-14T06:13:02.737Z,96.36
2017-12-14T06:14:02.538Z,95.79
2017-12-14T06:15:02.580Z,95.98
2017-12-14T06:16:02.788Z,95.98
2017-12-14T06:17:02.528Z,95.69
2017-12-14T06:18:02.452Z,96.36
2017-12-14T06:19:02.487Z,95.60
2017-12-14T06:20:02.454Z,95.79
2017-12-14T06:21:02.618Z,96.55
2017-12-14T06:22:02.465Z,96.83
2017-12-14T06:23:02.405Z,96.64
2017-12-14T06:24:02.373Z,96.83
2017-12-14T06:25:02.372Z,97.16
2017-12-14T06:26:02.403Z,96.78
2017-12-14T06:27:02.347Z,97.35
2017-12-14T06:28:02.380Z,96.50
2017-12-14T06:29:02.259Z,97.25
2017-12-14T06:30:02.265Z,97.25
2017-12-14T06:31:02.251Z,96.59
2017-12-14T06:32:02.245Z,98.39
2017-12-14T06:33:02.267Z,98.11
2017-12-14T06:34:02.263Z,97.16
2017-12-14T06:35:02.184Z,97.25
2017-12-14T06:36:02.192Z,96.59
2017-12-14T06:37:02.138Z,96.59
2017-12-14T06:38:02.121Z,96.50
2017-12-14T06:39:02.194Z,96.40
2017-12-14T06:40:02.112Z,96.59
2017-12-14T06:41:02.112Z,96.21
2017-12-14T06:42:02.105Z,96.88
2017-12-14T06:43:02.074Z,96.78
2017-12-14T06:44:02.017Z,96.69
2017-12-14T06:45:02.025Z,96.97
2017-12-14T06:46:02.024Z,96.50
2017-12-14T06:47:01.960Z,96.16
2017-12-14T06:48:02.035Z,96.16
2017-12-14T06:49:01.913Z,97.35
2017-12-14T06:50:01.894Z,97.63
2017-12-14T06:51:01.888Z,97.58
2017-12-14T06:52:01.874Z,97.11
2017-12-14T06:53:01.868Z,96.35
2017-12-14T06:54:01.905Z,96.64
2017-12-14T06:55:01.812Z,96.54
2017-12-14T06:56:01.787Z,96.35
2017-12-14T06:57:01.847Z,96.73
2017-12-14T06:58:01.756Z,97.11
2017-12-14T06:59:01.739Z,97.11
2017-12-14T07:00:01.751Z,97.20
2017-12-14T07:01:01.723Z,97.39
2017-12-14T07:02:01.687Z,98.15
2017-12-14T07:03:01.659Z,97.68
2017-12-14T07:04:01.659Z,97.96
2017-12-14T07:05:01.687Z,97.68
2017-12-14T07:06:01.613Z,97.68
2017-12-14T07:07:01.617Z,97.68
2017-12-14T07:08:01.584Z,97.68
2017-12-14T07:09:01.583Z,97.58
2017-12-14T07:10:01.547Z,97.58
2017-12-14T07:11:01.580Z,97.77
2017-12-14T07:12:01.515Z,97.77
2017-12-14T07:13:01.483Z,97.87
2017-12-14T07:14:01.482Z,98.53
2017-12-14T07:15:01.446Z,98.53
2017-12-14T07:16:01.431Z,98.53
2017-12-14T07:17:01.499Z,97.87
2017-12-14T07:18:01.406Z,98.15
2017-12-14T07:19:01.397Z,97.20
2017-12-14T07:20:01.351Z,97.68
2017-12-14T07:21:01.361Z,97.68
2017-12-14T07:22:01.332Z,97.87
2017-12-14T07:23:01.369Z,98.06
2017-12-14T07:24:01.297Z,97.68
2017-12-14T07:25:01.281Z,97.96
2017-12-14T07:26:01.243Z,98.15
2017-12-14T07:27:01.255Z,97.87
2017-12-14T07:28:01.255Z,97.96
2017-12-14T07:29:01.223Z,98.25
2017-12-14T07:30:01.216Z,98.15
2017-12-14T07:31:01.160Z,97.87
2017-12-14T07:32:01.148Z,98.53
2017-12-14T07:33:01.121Z,98.63
2017-12-14T07:34:01.172Z,98.34
2017-12-14T07:35:01.083Z,98.34
2017-12-14T07:36:01.064Z,98.63
2017-12-14T07:37:01.048Z,98.72
2017-12-14T07:38:01.041Z,98.34
2017-12-14T07:39:01.023Z,98.25
2017-12-14T07:40:01.048Z,98.25
2017-12-14T07:41:01.032Z,98.06
2017-12-14T07:42:00.965Z,98.25
2017-12-14T07:43:00.953Z,98.44
2017-12-14T07:44:00.932Z,98.82
2017-12-14T07:45:00.907Z,98.63
2017-12-14T07:46:00.936Z,97.96
2017-12-14T07:47:00.873Z,98.25
2017-12-14T07:48:00.849Z,98.06
2017-12-14T07:49:00.835Z,98.72
2017-12-14T07:50:00.815Z,98.34
2017-12-14T07:51:00.786Z,98.25
2017-12-14T07:52:00.809Z,99.48
2017-12-14T07:53:00.780Z,99.10
2017-12-14T07:54:00.750Z,98.91
2017-12-14T07:55:00.783Z,99.19
2017-12-14T07:56:00.710Z,99.01
2017-12-14T07:57:00.691Z,99.10
2017-12-14T07:58:00.683Z,99.01
2017-12-14T07:59:00.656Z,98.63
2017-12-14T08:00:00.645Z,98.44
2017-12-14T08:01:00.704Z,98.34
2017-12-14T08:02:00.594Z,99.19
2017-12-14T08:03:00.583Z,99.10
2017-12-14T08:04:00.573Z,98.25
2017-12-14T08:05:00.571Z,98.44
2017-12-14T08:06:00.563Z,98.44
2017-12-14T08:07:00.583Z,98.53
2017-12-14T08:08:00.491Z,98.15
2017-12-14T08:09:00.462Z,97.58
2017-12-14T08:10:00.460Z,98.06
2017-12-14T08:11:00.445Z,98.25
2017-12-14T08:12:00.441Z,97.58
2017-12-14T08:13:00.443Z,97.77
2017-12-14T08:14:00.393Z,97.58
2017-12-14T08:15:00.374Z,97.49
2017-12-14T08:16:00.348Z,97.49
2017-12-14T08:17:00.357Z,97.20
2017-12-14T08:18:00.309Z,97.87
2017-12-14T08:19:00.322Z,97.87
2017-12-14T08:20:00.296Z,98.25
2017-12-14T08:21:00.257Z,98.53
2017-12-14T08:22:00.232Z,98.44
2017-12-14T08:23:00.278Z,98.06
2017-12-14T08:24:00.226Z,98.06
2017-12-14T08:25:00.196Z,98.72
2017-12-14T08:26:00.177Z,98.63
2017-12-14T08:27:00.168Z,98.72
2017-12-14T08:28:00.190Z,98.72
2017-12-14T08:29:00.123Z,98.91
2017-12-14T08:30:00.106Z,98.82
2017-12-14T08:31:00.088Z,99.19
2017-12-14T08:32:00.058Z,98.82
2017-12-14T08:33:00.071Z,99.01
2017-12-14T08:34:00.062Z,99.10
2017-12-14T08:35:00.887Z,99.19
2017-12-14T08:36:00.548Z,99.29
2017-12-14T08:37:00.321Z,99.19
2017-12-14T08:37:59.939Z,99.38
2017-12-14T08:39:00.659Z,99.29
2017-12-14T08:40:02.443Z,99.19
2017-12-14T08:40:59.909Z,99.19
2017-12-14T08:41:59.943Z,98.72
2017-12-14T08:43:00.061Z,98.72
2017-12-14T08:43:59.837Z,99.29
2017-12-14T08:44:59.827Z,99.19
2017-12-14T08:46:01.753Z,98.34
2017-12-14T08:47:02.021Z,98.34
2017-12-14T08:47:59.802Z,99.29
2017-12-14T08:48:59.753Z,98.63
2017-12-14T08:49:59.720Z,98.34
2017-12-14T08:50:59.710Z,98.82
2017-12-14T08:52:00.141Z,98.34
2017-12-14T08:52:59.731Z,99.19
2017-12-14T08:54:10.760Z,99.19
2017-12-14T08:55:00.410Z,98.91
2017-12-14T08:56:02.401Z,99.01
2017-12-14T08:56:59.611Z,99.48
2017-12-14T08:58:00.045Z,98.82
2017-12-14T08:58:59.797Z,98.63
2017-12-14T09:00:03.496Z,98.63
2017-12-14T09:00:59.857Z,98.63
2017-12-14T09:02:00.080Z,99.48
2017-12-14T09:03:01.412Z,99.33
2017-12-14T09:03:59.515Z,98.49
2017-12-14T09:10:11.723Z,98.30
2017-12-14T09:11:11.373Z,98.49
2017-12-14T09:12:11.356Z,98.49
2017-12-14T09:13:11.510Z,98.49
2017-12-14T09:14:12.032Z,98.49
2017-12-14T09:15:13.048Z,98.49
2017-12-14T09:16:13.508Z,98.68
2017-12-14T09:17:11.326Z,98.86
2017-12-14T09:18:11.169Z,98.49
2017-12-14T09:19:13.049Z,99.33
2017-12-14T09:20:11.154Z,99.24
2017-12-14T09:21:11.128Z,99.33
2017-12-14T09:22:11.155Z,99.24
2017-12-14T09:23:11.142Z,99.24
2017-12-14T09:24:11.165Z,99.24
2017-12-14T09:25:11.067Z,99.24
2017-12-14T09:26:11.029Z,99.15
2017-12-14T09:27:11.001Z,99.24
2017-12-14T09:28:11.055Z,99.24
2017-12-14T09:29:11.057Z,99.33
2017-12-14T09:32:07.563Z,98.68
2017-12-14T09:32:46.517Z,98.39
2017-12-14T09:33:47.455Z,98.49
2017-12-14T09:34:46.458Z,99.24
2017-12-14T09:35:46.431Z,98.68
2017-12-14T09:36:46.404Z,98.30
2017-12-14T09:37:46.392Z,98.77
2017-12-14T09:38:46.403Z,98.39
2017-12-14T09:39:46.340Z,98.20
2017-12-14T09:40:46.323Z,98.39
2017-12-14T09:41:46.312Z,98.49
2017-12-14T09:42:46.274Z,98.16
2017-12-14T09:43:46.338Z,98.25
2017-12-14T09:44:46.264Z,98.44
2017-12-14T09:45:46.236Z,98.16
2017-12-14T09:46:46.206Z,97.87
2017-12-14T09:47:46.194Z,97.97
2017-12-14T09:48:46.175Z,97.59
2017-12-14T09:49:46.219Z,97.59
2017-12-14T09:50:46.195Z,96.36
2017-12-14T09:51:46.176Z,97.11
2017-12-14T09:52:46.113Z,97.49
2017-12-14T09:53:46.091Z,97.68
2017-12-14T09:54:46.072Z,97.59
2017-12-14T09:55:46.075Z,97.78
2017-12-14T09:56:46.192Z,97.59
2017-12-14T09:57:46.087Z,97.02
2017-12-14T09:58:46.186Z,97.21
2017-12-14T09:59:46.037Z,97.30
2017-12-14T10:00:45.976Z,97.68
2017-12-14T10:01:45.995Z,96.64
2017-12-14T10:02:46.167Z,96.55
2017-12-14T10:03:45.913Z,96.45
2017-12-14T10:04:46.212Z,96.92
2017-12-14T10:05:45.900Z,96.55
2017-12-14T10:06:45.905Z,96.64
2017-12-14T10:07:46.677Z,96.92
2017-12-14T10:08:48.864Z,96.92
2017-12-14T10:09:46.692Z,96.45
2017-12-14T10:10:45.940Z,96.73
2017-12-14T10:11:45.815Z,96.92
2017-12-14T10:12:46.899Z,97.11
2017-12-14T10:13:46.003Z,96.45
2017-12-14T10:14:47.451Z,96.45
2017-12-14T10:15:45.735Z,96.73
2017-12-14T10:16:45.950Z,96.64
2017-12-14T10:17:45.682Z,96.73
2017-12-14T10:18:45.699Z,96.45
2017-12-14T10:19:45.708Z,96.92
2017-12-14T10:20:45.683Z,97.59
2017-12-14T10:21:45.604Z,96.83
2017-12-14T10:22:45.784Z,96.92
2017-12-14T10:23:45.592Z,96.55
2017-12-14T10:24:45.599Z,97.11
2017-12-14T10:25:45.551Z,96.92
2017-12-14T10:26:45.590Z,96.83
2017-12-14T10:27:45.613Z,97.21
2017-12-14T10:28:45.526Z,96.73
2017-12-14T10:29:45.463Z,97.59
2017-12-14T10:30:45.451Z,97.59
2017-12-14T10:31:45.443Z,97.59
2017-12-14T10:32:45.432Z,97.87
2017-12-14T10:33:46.608Z,98.25
2017-12-14T10:34:45.825Z,97.68
2017-12-14T10:35:45.491Z,97.49
2017-12-14T10:36:45.556Z,97.49
2017-12-14T10:37:45.333Z,97.49
2017-12-14T10:38:45.314Z,97.49
2017-12-14T10:39:45.328Z,97.59
2017-12-14T10:40:45.362Z,97.68
2017-12-14T10:41:45.379Z,97.21
2017-12-14T10:42:45.239Z,97.21
2017-12-14T10:43:45.494Z,97.68
2017-12-14T10:44:45.223Z,97.49
2017-12-14T10:45:45.189Z,97.68
2017-12-14T10:46:45.183Z,97.68
2017-12-14T10:47:45.216Z,97.49
2017-12-14T10:48:45.682Z,97.49
2017-12-14T10:49:45.117Z,97.49
2017-12-14T10:50:45.114Z,97.59
2017-12-14T10:51:45.980Z,97.30
2017-12-14T10:52:45.131Z,97.49
2017-12-14T10:53:45.740Z,98.16
2017-12-14T10:54:45.124Z,98.16
2017-12-14T10:55:45.096Z,97.97
2017-12-14T10:56:45.148Z,97.97
2017-12-14T10:57:45.014Z,98.25
2017-12-14T10:58:44.970Z,97.97
2017-12-14T10:59:44.968Z,98.54
2017-12-14T11:00:44.946Z,98.54
2017-12-14T11:01:44.926Z,98.35
2017-12-14T11:02:44.914Z,98.06
2017-12-14T11:03:44.928Z,98.25
2017-12-14T11:04:44.932Z,98.35
2017-12-14T11:05:44.900Z,98.44
2017-12-14T11:06:44.819Z,98.25
2017-12-14T11:07:44.802Z,98.54
2017-12-14T11:08:44.786Z,98.44
2017-12-14T11:09:44.781Z,98.25
2017-12-14T11:10:44.775Z,97.97
2017-12-14T11:11:44.888Z,97.87
2017-12-14T11:12:44.718Z,97.97
2017-12-14T11:13:44.709Z,97.87
2017-12-14T11:14:44.710Z,98.06
2017-12-14T11:15:44.677Z,98.44
2017-12-14T11:16:44.712Z,97.68
2017-12-14T11:17:44.651Z,97.97
2017-12-14T11:18:44.746Z,97.40
2017-12-14T11:19:44.627Z,97.59
2017-12-14T11:20:44.597Z,97.49
2017-12-14T11:21:44.555Z,97.68
2017-12-14T11:22:44.601Z,98.44
2017-12-14T11:23:44.543Z,97.97
2017-12-14T11:24:44.549Z,98.06
2017-12-14T11:25:44.513Z,98.16
2017-12-14T11:26:44.482Z,98.06
2017-12-14T11:27:44.513Z,97.87
2017-12-14T11:28:44.501Z,97.49
2017-12-14T11:29:44.440Z,98.06
2017-12-14T11:30:45.208Z,98.16
2017-12-14T11:31:44.407Z,98.35
2017-12-14T11:32:44.484Z,98.35
2017-12-14T11:33:44.376Z,97.82
2017-12-14T11:34:44.404Z,97.73
2017-12-14T11:35:44.327Z,98.20
2017-12-14T11:36:47.208Z,97.92
2017-12-14T11:37:44.369Z,98.20
2017-12-14T11:38:44.280Z,98.49
2017-12-14T11:39:44.779Z,98.58
2017-12-14T11:40:44.293Z,98.39
2017-12-14T11:41:44.786Z,98.20
2017-12-14T11:42:45.006Z,98.39
2017-12-14T11:43:44.747Z,98.30
2017-12-14T11:44:44.863Z,98.39
2017-12-14T11:45:45.212Z,98.30
2017-12-14T11:46:44.912Z,98.77
2017-12-14T11:47:45.832Z,98.68
2017-12-14T11:48:44.798Z,98.68
2017-12-14T11:49:44.768Z,98.77
2017-12-14T11:50:44.741Z,98.68
2017-12-14T11:51:45.417Z,98.30
2017-12-14T11:52:45.299Z,98.39
2017-12-14T11:53:44.536Z,98.01
2017-12-14T11:56:34.133Z,98.06
2017-12-14T11:57:34.288Z,98.30
2017-12-14T11:58:34.390Z,98.77
2017-12-14T11:59:34.461Z,98.58
2017-12-14T12:00:33.821Z,98.11
2017-12-14T12:01:33.934Z,98.30
2017-12-14T12:02:34.814Z,98.49
2017-12-14T12:03:33.589Z,97.92
2017-12-14T12:04:34.546Z,97.92
2017-12-14T12:05:34.007Z,98.11
2017-12-14T12:06:33.583Z,98.11
2017-12-14T12:07:33.857Z,97.92
2017-12-14T12:08:34.201Z,97.92
2017-12-14T12:09:33.692Z,98.01
2017-12-14T12:10:33.530Z,97.92
2017-12-14T12:11:33.666Z,97.54
2017-12-14T12:12:34.005Z,97.35
2017-12-14T12:13:38.505Z,97.82
2017-12-14T12:20:52.378Z,97.92
2017-12-14T12:21:53.403Z,97.25
2017-12-14T12:22:52.098Z,97.44
2017-12-14T12:23:51.822Z,97.63
2017-12-14T12:24:51.703Z,97.35
2017-12-14T12:25:52.389Z,97.92
2017-12-14T12:26:53.706Z,98.20
2017-12-14T12:27:57.665Z,98.11
2017-12-14T12:44:23.193Z,98.01
2017-12-14T12:45:25.244Z,99.24
2017-12-14T12:46:24.388Z,98.20
2017-12-14T12:47:22.860Z,98.30
2017-12-14T12:55:22.253Z,98.39
2017-12-14T12:56:22.267Z,98.58
2017-12-14T12:57:21.680Z,98.49
2017-12-14T12:58:20.966Z,98.30
2017-12-14T12:59:21.932Z,98.39
2017-12-14T13:00:22.868Z,98.68
2017-12-14T13:01:23.590Z,98.39
2017-12-14T13:07:49.115Z,98.68
2017-12-14T13:08:43.464Z,98.86
2017-12-14T13:09:42.792Z,98.39
2017-12-14T13:10:42.694Z,98.58
2017-12-14T13:11:47.323Z,98.01
2017-12-14T13:12:43.424Z,98.30
2017-12-14T13:30:44.940Z,96.59
2017-12-14T13:31:45.073Z,97.59
2017-12-14T13:32:42.094Z,97.59
2017-12-14T13:33:43.276Z,97.68
2017-12-14T13:34:43.035Z,97.63
2017-12-14T13:35:42.725Z,97.73
2017-12-14T13:36:41.749Z,97.54
2017-12-14T13:37:41.729Z,97.54
2017-12-14T13:38:41.690Z,97.54
2017-12-14T13:39:42.048Z,97.44
2017-12-14T15:05:57.260Z,98.63
2017-12-14T15:06:56.695Z,99.19
2017-12-14T15:07:54.954Z,99.29
2017-12-14T15:08:54.831Z,99.29
2017-12-14T15:09:56.376Z,99.19
2017-12-14T15:10:54.038Z,98.63
2017-12-14T15:11:56.938Z,98.63
2017-12-14T15:12:54.823Z,98.53
2017-12-14T15:13:55.189Z,98.63
2017-12-14T15:14:55.815Z,98.63
2017-12-14T15:15:53.680Z,98.82
2017-12-14T15:16:53.794Z,98.34